createdAt,value
2022-09-07T00:00:53.652Z,101201.28
2022-09-07T00:05:55.965Z,101186.34
2022-09-07T00:11:00.197Z,101179.78
2022-09-07T00:16:06.557Z,101187.78
2022-09-07T00:21:10.220Z,101185.44
2022-09-07T00:26:14.447Z,101169.59
2022-09-07T00:31:20.456Z,101175.13
2022-09-07T00:36:22.785Z,101179.94
2022-09-07T00:41:24.761Z,101181.31
2022-09-07T00:46:30.228Z,101175.50
2022-09-07T00:51:36.910Z,101185.34
2022-09-07T00:56:43.554Z,101169.50
2022-09-07T01:01:47.251Z,101166.81
2022-09-07T01:06:49.796Z,101161.63
2022-09-07T01:11:55.364Z,101153.41
2022-09-07T01:17:09.567Z,101138.06
2022-09-07T01:22:34.571Z,101143.38
2022-09-07T01:28:04.461Z,101148.66
2022-09-07T01:33:28.403Z,101159.63
2022-09-07T01:38:36.269Z,101160.41
2022-09-07T01:43:47.187Z,101159.91
2022-09-07T01:48:52.529Z,101175.34
2022-09-07T01:53:58.261Z,101156.31
2022-09-07T01:59:04.342Z,101156.47
2022-09-07T02:04:10.721Z,101154.34
2022-09-07T02:09:19.104Z,101140.19
2022-09-07T02:14:26.172Z,101151.47
2022-09-07T02:19:33.941Z,101157.66
2022-09-07T02:24:39.829Z,101144.81
2022-09-07T02:29:43.692Z,101134.63
2022-09-07T02:34:46.008Z,101145.09
2022-09-07T02:39:48.163Z,101147.13
2022-09-07T02:44:51.846Z,101140.19
2022-09-07T02:50:07.586Z,101134.34
2022-09-07T02:55:19.408Z,101142.59
2022-09-07T03:00:23.049Z,101140.16
2022-09-07T03:05:33.144Z,101135.81
2022-09-07T03:10:38.126Z,101135.75
2022-09-07T03:15:41.719Z,101122.25
2022-09-07T03:20:43.867Z,101110.59
2022-09-07T03:25:47.567Z,101110.50
2022-09-07T03:30:51.400Z,101107.78
2022-09-07T03:36:01.310Z,101112.13
2022-09-07T03:41:05.650Z,101117.63
2022-09-07T03:46:09.937Z,101117.84
2022-09-07T03:51:13.456Z,101115.38
2022-09-07T03:56:18.456Z,101100.22
2022-09-07T04:01:24.925Z,101095.72
2022-09-07T04:06:26.785Z,101103.75
2022-09-07T04:11:28.854Z,101093.19
2022-09-07T04:16:32.434Z,101094.91
2022-09-07T04:21:34.440Z,101099.50
2022-09-07T04:26:36.634Z,101106.50
2022-09-07T04:31:39.850Z,101102.81
2022-09-07T04:36:42.011Z,101094.84
2022-09-07T04:41:43.796Z,101089.59
2022-09-07T04:46:47.827Z,101078.00
2022-09-07T04:51:50.000Z,101072.59
2022-09-07T04:56:51.894Z,101072.25
2022-09-07T05:01:55.101Z,101069.19
2022-09-07T05:06:56.885Z,101069.03
2022-09-07T05:11:58.691Z,101077.94
2022-09-07T05:17:02.075Z,101063.50
2022-09-07T05:22:04.140Z,101065.81
2022-09-07T05:27:06.459Z,101068.00
2022-09-07T05:32:11.913Z,101062.31
2022-09-07T05:37:14.042Z,101062.13
2022-09-07T05:42:16.202Z,101069.22
2022-09-07T05:47:19.736Z,101062.44
2022-09-07T05:52:22.125Z,101073.13
2022-09-07T05:57:23.914Z,101073.88
2022-09-07T06:02:27.517Z,101079.00
2022-09-07T06:07:29.542Z,101072.31
2022-09-07T06:12:31.786Z,101069.75
2022-09-07T06:17:35.039Z,101075.81
2022-09-07T06:22:37.281Z,101069.13
2022-09-07T06:27:39.032Z,101065.47
2022-09-07T06:37:44.887Z,101056.69
2022-09-07T06:42:46.782Z,101057.56
2022-09-07T06:47:53.918Z,101058.25
2022-09-07T06:58:19.030Z,101044.47
2022-09-07T07:03:22.809Z,101044.31
2022-09-07T07:08:26.783Z,101050.75
2022-09-07T07:13:29.377Z,101070.00
2022-09-07T07:18:33.621Z,101049.59
2022-09-07T07:23:36.046Z,101049.00
2022-09-07T07:34:02.166Z,101039.41
2022-09-07T07:39:04.527Z,101027.81
2022-09-07T07:44:06.315Z,101031.56
2022-09-07T07:49:10.199Z,101027.50
2022-09-07T07:54:11.929Z,101039.84
2022-09-07T07:59:15.786Z,101043.66
2022-09-07T08:04:19.320Z,101029.03
2022-09-07T08:09:21.073Z,101035.19
2022-09-07T08:14:22.892Z,101032.63
2022-09-07T08:19:26.196Z,101032.69
2022-09-07T08:24:28.214Z,101031.47
2022-09-07T08:29:33.495Z,101024.75
2022-09-07T08:34:38.098Z,101023.47
2022-09-07T08:39:39.813Z,101014.38
2022-09-07T08:44:47.811Z,101009.47
2022-09-07T08:49:55.531Z,101006.81
2022-09-07T08:55:02.225Z,101007.56
2022-09-07T09:00:07.702Z,101018.81
2022-09-07T09:05:24.500Z,101023.63
2022-09-07T09:10:34.622Z,101013.75
2022-09-07T09:15:48.171Z,101009.13
2022-09-07T09:20:54.588Z,101005.88
2022-09-07T09:25:59.284Z,101006.38
2022-09-07T09:31:01.497Z,101002.69
2022-09-07T09:36:24.130Z,101004.59
2022-09-07T09:41:36.243Z,101006.00
2022-09-07T09:46:38.428Z,100996.97
2022-09-07T10:07:57.816Z,100976.28
2022-09-07T10:12:59.698Z,100966.63
2022-09-07T10:18:03.437Z,100968.28
2022-09-07T10:23:20.616Z,100970.53
2022-09-07T10:28:24.254Z,100957.88
2022-09-07T10:33:33.535Z,100950.03
2022-09-07T10:38:43.040Z,100945.09
2022-09-07T10:43:47.086Z,100934.72
2022-09-07T10:49:02.148Z,100943.72
2022-09-07T10:54:30.535Z,100954.72
2022-09-07T11:05:18.564Z,100934.47
2022-09-07T11:10:29.725Z,100941.22
2022-09-07T11:15:35.572Z,100930.59
2022-09-07T11:20:43.102Z,100940.47
2022-09-07T11:25:54.633Z,100950.56
2022-09-07T11:31:00.827Z,100957.41
2022-09-07T11:36:12.043Z,100950.59
2022-09-07T11:41:28.370Z,100961.59
2022-09-07T11:46:36.747Z,100940.28
2022-09-07T11:51:42.011Z,100955.19
2022-09-07T11:56:52.241Z,100946.44
2022-09-07T12:02:13.636Z,100929.03
2022-09-07T12:07:39.308Z,100928.13
2022-09-07T12:13:00.629Z,100919.66
2022-09-07T12:18:13.991Z,100920.88
2022-09-07T12:23:24.496Z,100917.16
2022-09-07T12:28:59.785Z,100906.78
2022-09-07T12:34:35.192Z,100908.94
2022-09-07T12:39:38.431Z,100897.56
2022-09-07T12:44:40.408Z,100884.00
2022-09-07T12:50:20.398Z,100881.41
2022-09-07T13:01:28.273Z,100880.16
2022-09-07T13:07:04.064Z,100875.13
2022-09-07T13:17:56.206Z,100871.72
2022-09-07T13:23:17.974Z,100872.13
2022-09-07T13:28:52.329Z,100870.63
2022-09-07T13:33:54.315Z,100874.28
2022-09-07T13:38:56.915Z,100860.28
2022-09-07T13:44:03.162Z,100848.44
2022-09-07T13:49:15.355Z,100851.13
2022-09-07T13:54:25.911Z,100847.16
2022-09-07T13:59:33.842Z,100845.50
2022-09-07T14:04:41.815Z,100850.19
2022-09-07T14:09:43.529Z,100850.97
2022-09-07T14:14:47.011Z,100840.72
2022-09-07T14:19:50.279Z,100834.53
2022-09-07T14:24:54.387Z,100840.28
2022-09-07T14:30:24.812Z,100831.78
2022-09-07T14:35:28.715Z,100830.78
2022-09-07T14:40:30.772Z,100811.97
2022-09-07T14:45:35.078Z,100815.88
2022-09-07T14:50:37.044Z,100804.97
2022-09-07T14:55:40.829Z,100812.56
2022-09-07T15:00:46.124Z,100820.75
2022-09-07T15:05:48.798Z,100817.94
2022-09-07T15:16:28.100Z,100804.47
2022-09-07T15:21:32.292Z,100808.19
2022-09-07T15:32:04.771Z,100815.16
2022-09-07T15:38:00.968Z,100812.63
2022-09-07T15:47:53.407Z,100805.13
2022-09-07T15:52:55.291Z,100796.94
2022-09-07T15:58:10.672Z,100790.41
2022-09-07T16:03:15.279Z,100774.13
2022-09-07T16:08:25.100Z,100766.25
2022-09-07T16:13:31.497Z,100761.19
2022-09-07T16:18:38.112Z,100765.53
2022-09-07T16:23:42.469Z,100756.88
2022-09-07T16:28:46.549Z,100755.91
2022-09-07T16:33:49.702Z,100745.19
2022-09-07T16:38:55.820Z,100749.31
2022-09-07T16:43:58.300Z,100741.81
2022-09-07T16:49:04.511Z,100742.72
2022-09-07T16:54:08.974Z,100759.69
2022-09-07T16:59:12.785Z,100755.63
2022-09-07T17:04:15.998Z,100752.03
2022-09-07T17:09:17.900Z,100762.13
2022-09-07T17:14:19.890Z,100776.09
2022-09-07T17:19:30.416Z,100755.47
2022-09-07T17:24:32.728Z,100738.63
2022-09-07T17:29:37.109Z,100751.09
2022-09-07T17:34:41.049Z,100741.50
2022-09-07T17:39:42.962Z,100747.22
2022-09-07T17:44:46.318Z,100744.09
2022-09-07T17:49:49.360Z,100739.06
2022-09-07T17:54:51.081Z,100744.56
2022-09-07T18:05:16.173Z,100773.38
2022-09-07T18:10:18.535Z,100785.25
2022-09-07T18:15:20.443Z,100795.97
2022-09-07T18:20:24.572Z,100803.91
2022-09-07T18:25:27.981Z,100802.84
2022-09-07T18:30:29.787Z,100806.28
2022-09-07T18:35:33.179Z,100805.47
2022-09-07T18:40:38.405Z,100804.09
2022-09-07T18:45:40.339Z,100800.22
2022-09-07T18:50:43.395Z,100802.66
2022-09-07T18:55:45.128Z,100795.84
2022-09-07T19:00:47.602Z,100791.09
2022-09-07T19:05:57.144Z,100806.34
2022-09-07T19:11:06.912Z,100813.03
2022-09-07T19:16:11.017Z,100817.28
2022-09-07T19:21:16.939Z,100801.09
2022-09-07T19:26:18.967Z,100799.81
2022-09-07T19:31:21.560Z,100801.16
2022-09-07T19:36:24.954Z,100801.66
2022-09-07T19:41:27.936Z,100806.63
2022-09-07T19:46:29.817Z,100799.03
2022-09-07T19:51:36.737Z,100801.25
2022-09-07T19:56:40.046Z,100792.84
2022-09-07T20:01:41.859Z,100780.31
2022-09-07T20:06:46.312Z,100775.31
2022-09-07T20:11:48.567Z,100774.06
2022-09-07T20:16:50.460Z,100774.38
2022-09-07T20:21:53.762Z,100759.75
2022-09-07T20:26:55.894Z,100748.25
2022-09-07T20:31:59.088Z,100736.19
2022-09-07T20:37:02.719Z,100737.06
2022-09-07T20:42:05.112Z,100733.75
2022-09-07T20:47:07.582Z,100725.81
2022-09-07T20:52:11.017Z,100719.88
2022-09-07T20:57:13.568Z,100727.66
2022-09-07T21:02:16.734Z,100733.91
2022-09-07T21:07:21.397Z,100735.66
2022-09-07T21:12:25.317Z,100739.13
2022-09-07T21:17:28.302Z,100741.34
2022-09-07T21:22:33.258Z,100731.69
2022-09-07T21:27:38.934Z,100733.03
2022-09-07T21:32:41.678Z,100721.38
2022-09-07T21:37:46.260Z,100727.88
2022-09-07T21:42:51.525Z,100742.94
2022-09-07T21:47:53.785Z,100745.03
2022-09-07T21:52:58.056Z,100737.84
2022-09-07T21:58:01.016Z,100720.56
2022-09-07T22:03:03.958Z,100718.47
2022-09-07T22:08:08.928Z,100724.47
2022-09-07T22:13:12.785Z,100731.28
2022-09-07T22:18:15.886Z,100722.41
2022-09-07T22:23:20.363Z,100729.97
2022-09-07T22:28:22.507Z,100732.00
2022-09-07T22:33:25.184Z,100728.91
2022-09-07T22:38:29.443Z,100721.34
2022-09-07T22:43:31.478Z,100720.75
2022-09-07T22:48:33.818Z,100724.25
2022-09-07T22:53:40.707Z,100719.72
2022-09-07T22:58:46.173Z,100718.88
2022-09-07T23:03:49.564Z,100707.56
2022-09-07T23:08:56.073Z,100700.94
2022-09-07T23:14:02.383Z,100685.00
2022-09-07T23:19:04.569Z,100681.13
2022-09-07T23:24:12.039Z,100677.84
2022-09-07T23:29:15.797Z,100679.13
2022-09-07T23:34:18.209Z,100668.53
2022-09-07T23:39:22.121Z,100663.00
2022-09-07T23:44:24.468Z,100661.53
2022-09-07T23:49:27.108Z,100670.63
2022-09-07T23:54:31.266Z,100673.03
2022-09-07T23:59:33.716Z,100673.34
